createdAt,value
2019-02-04T00:01:22.131Z,14.70
2019-02-04T00:03:51.375Z,14.93
2019-02-04T00:06:20.426Z,15.47
2019-02-04T00:08:49.483Z,14.67
2019-02-04T00:11:18.571Z,14.60
2019-02-04T00:13:47.603Z,15.03
2019-02-04T00:16:16.659Z,14.57
2019-02-04T00:18:45.990Z,15.13
2019-02-04T00:21:15.044Z,15.90
2019-02-04T00:23:44.119Z,13.33
2019-02-04T00:26:13.194Z,15.77
2019-02-04T00:28:42.240Z,16.17
2019-02-04T00:31:11.269Z,14.30
2019-02-04T00:33:40.532Z,15.63
2019-02-04T00:36:09.556Z,23.40
2019-02-04T00:38:38.579Z,32.53
2019-02-04T00:41:07.675Z,25.60
2019-02-04T00:43:36.738Z,22.97
2019-02-04T00:46:06.030Z,19.30
2019-02-04T00:48:35.625Z,20.67
2019-02-04T00:51:04.686Z,17.10
2019-02-04T00:53:33.738Z,18.07
2019-02-04T00:56:02.821Z,18.20
2019-02-04T00:58:31.899Z,16.03
2019-02-04T01:01:00.932Z,15.50
2019-02-04T01:03:30.126Z,15.90
2019-02-04T01:05:59.186Z,15.67
2019-02-04T01:08:28.254Z,15.10
2019-02-04T01:10:57.479Z,15.80
2019-02-04T01:13:26.556Z,17.10
2019-02-04T01:15:55.879Z,16.20
2019-02-04T01:18:24.945Z,16.07
2019-02-04T01:20:53.994Z,16.30
2019-02-04T01:23:23.042Z,16.07
2019-02-04T01:25:52.181Z,13.40
2019-02-04T01:28:21.259Z,16.03
2019-02-04T01:30:50.730Z,15.37
2019-02-04T01:33:19.801Z,15.90
2019-02-04T01:35:48.875Z,17.47
2019-02-04T01:38:17.909Z,15.37
2019-02-04T01:40:47.010Z,15.60
2019-02-04T01:43:16.026Z,15.17
2019-02-04T01:45:45.325Z,13.80
2019-02-04T01:48:14.738Z,13.83
2019-02-04T01:50:43.763Z,13.57
2019-02-04T01:53:12.792Z,13.23
2019-02-04T01:55:41.867Z,14.47
2019-02-04T01:58:10.891Z,14.00
2019-02-04T02:00:40.354Z,12.93
2019-02-04T02:03:09.384Z,12.80
2019-02-04T02:05:38.447Z,13.83
2019-02-04T02:08:07.487Z,15.57
2019-02-04T02:10:36.600Z,16.57
2019-02-04T02:13:05.659Z,14.77
2019-02-04T02:15:35.023Z,14.40
2019-02-04T02:18:04.053Z,13.90
2019-02-04T02:20:33.082Z,14.00
2019-02-04T02:23:02.148Z,16.23
2019-02-04T02:25:31.103Z,15.57
2019-02-04T02:28:00.471Z,14.53
2019-02-04T02:30:33.368Z,15.00
2019-02-04T02:33:02.444Z,15.50
2019-02-04T02:35:31.499Z,16.80
2019-02-04T02:38:00.808Z,14.87
2019-02-04T02:40:31.977Z,15.77
2019-02-04T02:43:01.403Z,17.83
2019-02-04T02:45:30.417Z,16.33
2019-02-04T02:47:59.535Z,17.60
2019-02-04T02:50:28.644Z,17.43
2019-02-04T02:52:57.716Z,22.93
2019-02-04T02:55:26.783Z,16.50
2019-02-04T02:57:56.086Z,17.83
2019-02-04T03:00:27.167Z,19.07
2019-02-04T03:02:56.453Z,18.60
2019-02-04T03:05:25.731Z,17.37
2019-02-04T03:07:54.905Z,18.10
2019-02-04T03:10:26.375Z,19.07
2019-02-04T03:12:55.471Z,17.77
2019-02-04T03:15:24.505Z,16.57
2019-02-04T03:17:53.899Z,20.53
2019-02-04T03:20:22.921Z,18.73
2019-02-04T03:22:51.941Z,16.80
2019-02-04T03:25:21.036Z,17.70
2019-02-04T03:27:50.101Z,18.33
2019-02-04T03:30:30.585Z,17.27
2019-02-04T03:32:59.617Z,18.80
2019-02-04T03:35:28.719Z,17.73
2019-02-04T03:37:58.517Z,17.97
2019-02-04T03:40:29.670Z,17.07
2019-02-04T03:42:58.790Z,16.20
2019-02-04T03:45:27.813Z,16.43
2019-02-04T03:48:05.848Z,16.57
2019-02-04T03:50:27.820Z,16.57
2019-02-04T03:52:56.902Z,16.17
2019-02-04T03:55:26.138Z,17.47
2019-02-04T03:57:55.321Z,17.33
2019-02-04T04:00:26.728Z,17.00
2019-02-04T04:02:55.723Z,16.13
2019-02-04T04:05:25.069Z,17.53
2019-02-04T04:07:54.091Z,17.47
2019-02-04T04:10:23.139Z,17.93
2019-02-04T04:12:52.197Z,18.00
2019-02-04T04:15:21.325Z,19.20
2019-02-04T04:17:50.545Z,16.70
2019-02-04T04:20:20.100Z,17.87
2019-02-04T04:22:49.243Z,17.93
2019-02-04T04:25:18.495Z,17.90
2019-02-04T04:27:48.036Z,18.50
2019-02-04T04:30:25.037Z,18.00
2019-02-04T04:32:54.366Z,18.20
2019-02-04T04:35:23.432Z,18.40
2019-02-04T04:37:52.902Z,18.37
2019-02-04T04:40:21.939Z,17.43
2019-02-04T04:42:50.959Z,19.67
2019-02-04T04:45:21.641Z,18.40
2019-02-04T04:47:50.945Z,19.63
2019-02-04T04:50:20.014Z,19.00
2019-02-04T04:52:49.225Z,16.73
2019-02-04T04:55:20.793Z,19.00
2019-02-04T04:57:49.954Z,18.37
2019-02-04T05:00:24.105Z,18.10
2019-02-04T05:02:53.146Z,19.73
2019-02-04T05:05:22.198Z,18.00
2019-02-04T05:07:51.258Z,20.57
2019-02-04T05:10:20.650Z,18.83
2019-02-04T05:12:50.420Z,19.10
2019-02-04T05:15:21.818Z,19.47
2019-02-04T05:17:52.737Z,18.87
2019-02-04T05:20:22.685Z,18.60
2019-02-04T05:22:51.766Z,18.77
2019-02-04T05:25:20.985Z,19.40
2019-02-04T05:27:50.317Z,20.50
2019-02-04T05:30:20.903Z,20.27
2019-02-04T05:32:50.063Z,20.30
2019-02-04T05:35:19.077Z,19.90
2019-02-04T05:37:48.158Z,21.07
2019-02-04T05:40:17.561Z,19.90
2019-02-04T05:42:46.941Z,20.47
2019-02-04T05:45:17.572Z,21.60
2019-02-04T05:47:46.595Z,20.03
2019-02-04T05:50:17.585Z,22.60
2019-02-04T05:52:46.729Z,22.07
2019-02-04T05:55:16.881Z,20.60
2019-02-04T05:57:46.118Z,21.00
2019-02-04T06:00:19.809Z,21.87
2019-02-04T06:02:49.067Z,21.13
2019-02-04T06:05:18.099Z,19.87
2019-02-04T06:07:47.129Z,21.83
2019-02-04T06:10:16.501Z,22.80
2019-02-04T06:12:45.518Z,20.50
2019-02-04T06:15:14.594Z,21.00
2019-02-04T06:17:43.700Z,20.07
2019-02-04T06:20:15.091Z,21.23
2019-02-04T06:22:44.155Z,21.20
2019-02-04T06:25:13.665Z,21.20
2019-02-04T06:27:42.730Z,21.43
2019-02-04T06:30:12.510Z,21.73
2019-02-04T06:32:41.581Z,20.87
2019-02-04T06:35:10.936Z,20.73
2019-02-04T06:37:39.957Z,20.90
2019-02-04T06:40:10.887Z,20.90
2019-02-04T06:42:39.907Z,23.13
2019-02-04T06:45:11.008Z,21.47
2019-02-04T06:47:40.317Z,20.93
2019-02-04T06:50:11.638Z,20.70
2019-02-04T06:52:41.096Z,21.47
2019-02-04T06:55:13.399Z,21.13
2019-02-04T06:57:42.484Z,21.70
2019-02-04T07:00:12.750Z,21.47
2019-02-04T07:02:41.779Z,22.47
2019-02-04T07:05:10.991Z,21.63
2019-02-04T07:07:40.405Z,22.90
2019-02-04T07:10:12.883Z,21.27
2019-02-04T07:12:41.897Z,21.13
2019-02-04T07:15:11.471Z,21.47
2019-02-04T07:17:40.924Z,20.90
2019-02-04T07:20:15.566Z,20.87
2019-02-04T07:22:44.644Z,20.47
2019-02-04T07:25:14.597Z,20.20
2019-02-04T07:27:43.727Z,21.67
2019-02-04T07:30:15.788Z,20.20
2019-02-04T07:32:44.813Z,21.30
2019-02-04T07:35:15.043Z,21.83
2019-02-04T07:37:44.064Z,21.20
2019-02-04T07:40:15.946Z,22.00
2019-02-04T07:42:45.534Z,21.83
2019-02-04T07:45:14.713Z,21.20
2019-02-04T07:47:43.778Z,22.90
2019-02-04T07:50:12.859Z,23.90
2019-02-04T07:52:41.914Z,23.47
2019-02-04T07:55:11.662Z,22.53
2019-02-04T07:57:40.725Z,22.63
2019-02-04T08:00:29.905Z,22.33
2019-02-04T08:02:59.460Z,22.67
2019-02-04T08:05:28.494Z,22.00
2019-02-04T08:07:58.041Z,22.93
2019-02-04T08:10:27.065Z,21.87
2019-02-04T08:13:01.532Z,22.90
2019-02-04T08:15:29.505Z,22.53
2019-02-04T08:17:58.593Z,23.73
2019-02-04T08:20:27.837Z,22.47
2019-02-04T08:22:56.896Z,24.27
2019-02-04T08:25:26.608Z,22.93
2019-02-04T08:27:56.102Z,22.17
2019-02-04T08:30:27.993Z,22.83
2019-02-04T08:32:57.066Z,22.07
2019-02-04T08:35:26.125Z,21.70
2019-02-04T08:37:55.712Z,22.43
2019-02-04T08:40:24.775Z,23.10
2019-02-04T08:42:54.158Z,23.60
2019-02-04T08:45:23.209Z,23.07
2019-02-04T08:47:52.270Z,22.37
2019-02-04T08:50:21.876Z,23.60
2019-02-04T08:52:51.032Z,22.27
2019-02-04T08:55:20.400Z,23.40
2019-02-04T08:57:49.449Z,24.43
2019-02-04T09:00:19.991Z,25.83
2019-02-04T09:02:49.156Z,24.07
2019-02-04T09:05:18.405Z,24.90
2019-02-04T09:07:47.604Z,26.10
2019-02-04T09:10:19.785Z,24.97
2019-02-04T09:12:48.872Z,24.73
2019-02-04T09:15:18.243Z,24.10
2019-02-04T09:17:47.276Z,26.10
2019-02-04T09:20:17.118Z,25.63
2019-02-04T09:22:46.538Z,24.17
2019-02-04T09:25:16.302Z,25.70
2019-02-04T09:27:45.319Z,27.03
2019-02-04T09:30:19.407Z,29.60
2019-02-04T09:32:48.416Z,30.07
2019-02-04T09:35:18.638Z,28.33
2019-02-04T09:37:47.657Z,31.87
2019-02-04T09:40:22.756Z,27.50
2019-02-04T09:42:51.787Z,28.20
2019-02-04T09:45:24.259Z,29.90
2019-02-04T09:47:51.722Z,28.63
2019-02-04T09:50:22.198Z,26.40
2019-02-04T09:52:51.222Z,28.50
2019-02-04T09:55:22.727Z,25.73
2019-02-04T09:57:51.763Z,25.47
2019-02-04T10:00:23.700Z,28.13
2019-02-04T10:02:52.850Z,26.37
2019-02-04T10:05:23.174Z,25.60
2019-02-04T10:07:52.190Z,25.40
2019-02-04T10:10:23.668Z,25.70
2019-02-04T10:12:52.931Z,28.43
2019-02-04T10:15:24.378Z,26.23
2019-02-04T10:17:53.473Z,25.17
2019-02-04T10:20:32.996Z,26.77
2019-02-04T10:22:53.350Z,25.37
2019-02-04T10:25:24.359Z,26.27
2019-02-04T10:27:53.405Z,26.20
2019-02-04T10:30:23.086Z,25.53
2019-02-04T10:32:52.337Z,23.50
2019-02-04T10:35:21.360Z,25.50
2019-02-04T10:37:51.472Z,23.13
2019-02-04T10:40:22.453Z,22.73
2019-02-04T10:42:51.645Z,23.47
2019-02-04T10:45:21.201Z,24.27
2019-02-04T10:47:50.724Z,23.67
2019-02-04T10:50:24.734Z,23.83
2019-02-04T10:52:53.788Z,25.77
2019-02-04T10:55:22.870Z,24.80
2019-02-04T10:57:51.917Z,23.93
2019-02-04T11:00:23.233Z,23.90
2019-02-04T11:02:52.254Z,24.33
2019-02-04T11:05:23.982Z,24.20
2019-02-04T11:07:53.403Z,22.87
2019-02-04T11:10:26.731Z,23.80
2019-02-04T11:12:56.301Z,23.97
2019-02-04T11:15:25.789Z,23.07
2019-02-04T11:17:54.804Z,22.10
2019-02-04T11:20:26.465Z,22.17
2019-02-04T11:22:55.525Z,22.80
2019-02-04T11:25:24.566Z,22.17
2019-02-04T11:27:53.612Z,21.80
2019-02-04T11:30:31.080Z,23.20
2019-02-04T11:33:00.326Z,20.53
2019-02-04T11:35:29.613Z,22.90
2019-02-04T11:37:58.665Z,21.70
2019-02-04T11:40:35.870Z,21.80
2019-02-04T11:43:05.502Z,22.23
2019-02-04T11:45:34.744Z,21.93
2019-02-04T11:48:05.792Z,23.90
2019-02-04T11:50:34.848Z,23.10
2019-02-04T11:53:03.933Z,21.20
2019-02-04T11:55:32.989Z,22.63
2019-02-04T11:58:02.005Z,21.57
2019-02-04T12:00:31.422Z,22.07
2019-02-04T12:03:01.413Z,21.67
2019-02-04T12:05:30.846Z,22.13
2019-02-04T12:08:00.593Z,22.47
2019-02-04T12:10:32.364Z,24.07
2019-02-04T12:13:01.953Z,22.83
2019-02-04T12:15:30.907Z,22.33
2019-02-04T12:17:59.957Z,21.70
2019-02-04T12:20:29.006Z,22.57
2019-02-04T12:22:58.236Z,21.33
2019-02-04T12:25:27.658Z,21.57
2019-02-04T12:27:57.254Z,21.93
2019-02-04T12:30:31.926Z,24.63
2019-02-04T12:33:01.294Z,23.50
2019-02-04T12:35:30.463Z,21.60
2019-02-04T12:37:59.523Z,23.40
2019-02-04T12:40:28.681Z,24.00
2019-02-04T12:42:57.696Z,25.03
2019-02-04T12:45:29.185Z,23.07
2019-02-04T12:48:00.633Z,21.17
2019-02-04T12:50:29.034Z,20.23
2019-02-04T12:52:58.174Z,17.87
2019-02-04T12:55:28.907Z,18.23
2019-02-04T12:57:58.081Z,17.37
2019-02-04T13:00:28.285Z,17.73
2019-02-04T13:02:57.845Z,17.63
2019-02-04T13:05:35.097Z,16.27
2019-02-04T13:08:06.452Z,16.33
2019-02-04T13:10:35.765Z,17.53
2019-02-04T13:13:05.476Z,17.00
2019-02-04T13:15:34.489Z,16.80
2019-02-04T13:18:03.550Z,16.87
2019-02-04T13:20:32.606Z,16.20
2019-02-04T13:23:01.936Z,18.37
2019-02-04T13:25:30.973Z,16.90
2019-02-04T13:28:00.246Z,16.80
2019-02-04T13:30:29.768Z,16.67
2019-02-04T13:32:59.037Z,17.13
2019-02-04T13:35:31.077Z,16.90
2019-02-04T13:37:59.046Z,18.67
2019-02-04T13:40:28.408Z,16.00
2019-02-04T13:42:57.748Z,17.33
2019-02-04T13:45:27.692Z,16.70
2019-02-04T13:47:57.110Z,16.37
2019-02-04T13:50:26.577Z,17.10
2019-02-04T13:52:55.762Z,16.20
2019-02-04T13:55:27.529Z,16.33
2019-02-04T13:57:56.581Z,16.23
2019-02-04T14:00:27.400Z,17.23
2019-02-04T14:02:59.355Z,15.70
2019-02-04T14:05:31.156Z,17.97
2019-02-04T14:07:59.739Z,16.13
2019-02-04T14:10:31.426Z,16.77
2019-02-04T14:13:00.451Z,16.33
2019-02-04T14:15:29.798Z,17.67
2019-02-04T14:17:59.041Z,15.27
2019-02-04T14:20:28.121Z,16.50
2019-02-04T14:22:57.335Z,17.43
2019-02-04T14:25:26.536Z,20.70
2019-02-04T14:27:55.592Z,17.43
2019-02-04T14:30:27.768Z,19.10
2019-02-04T14:32:57.016Z,17.57
2019-02-04T14:35:26.241Z,15.53
2019-02-04T14:37:55.794Z,17.83
2019-02-04T14:40:25.121Z,16.07
2019-02-04T14:43:00.376Z,14.53
2019-02-04T14:46:02.049Z,14.80
2019-02-04T14:49:36.446Z,15.53
2019-02-04T14:52:35.859Z,14.17
2019-02-04T14:55:30.057Z,14.37
2019-02-04T14:58:27.962Z,15.07
2019-02-04T15:01:42.597Z,14.90
2019-02-04T15:04:27.398Z,13.57
2019-02-04T15:07:25.647Z,14.67
2019-02-04T15:10:21.053Z,20.03
2019-02-04T15:13:27.194Z,17.60
2019-02-04T15:16:33.041Z,14.43
2019-02-04T15:19:42.194Z,13.87
2019-02-04T15:22:42.478Z,15.40
2019-02-04T15:25:53.184Z,13.57
2019-02-04T15:28:52.768Z,13.77
2019-02-04T15:32:05.163Z,16.43
2019-02-04T15:35:16.869Z,14.73
2019-02-04T15:38:01.814Z,18.27
2019-02-04T15:41:07.482Z,19.10
2019-02-04T15:43:53.942Z,20.13
2019-02-04T15:46:56.154Z,21.43
2019-02-04T15:50:20.606Z,22.30
2019-02-04T15:52:49.850Z,22.03
2019-02-04T15:55:20.276Z,23.37
2019-02-04T15:57:49.453Z,23.00
2019-02-04T16:00:18.676Z,24.30
2019-02-04T16:02:47.695Z,21.93
2019-02-04T16:05:16.764Z,24.47
2019-02-04T16:07:45.806Z,23.10
2019-02-04T16:10:16.724Z,21.53
2019-02-04T16:12:47.913Z,24.70
2019-02-04T16:15:17.062Z,24.23
2019-02-04T16:17:46.088Z,22.87
2019-02-04T16:20:21.197Z,24.27
2019-02-04T16:22:58.056Z,21.50
2019-02-04T16:25:21.273Z,23.80
2019-02-04T16:27:50.293Z,25.10
2019-02-04T16:30:20.760Z,27.13
2019-02-04T16:32:52.781Z,23.47
2019-02-04T16:35:20.606Z,24.63
2019-02-04T16:37:50.060Z,23.57
2019-02-04T16:40:20.673Z,22.63
2019-02-04T16:42:49.742Z,24.53
2019-02-04T16:45:19.902Z,24.37
2019-02-04T16:47:50.001Z,22.47
2019-02-04T16:50:21.618Z,24.20
2019-02-04T16:52:50.793Z,24.77
2019-02-04T16:55:19.880Z,25.43
2019-02-04T16:57:48.910Z,23.83
2019-02-04T17:00:20.958Z,23.97
2019-02-04T17:02:50.050Z,26.20
2019-02-04T17:05:19.714Z,25.63
2019-02-04T17:07:48.727Z,26.77
2019-02-04T17:10:19.356Z,27.90
2019-02-04T17:12:48.401Z,26.97
2019-02-04T17:15:17.460Z,25.90
2019-02-04T17:17:46.750Z,26.47
2019-02-04T17:20:21.713Z,28.63
2019-02-04T17:22:50.770Z,27.17
2019-02-04T17:25:20.112Z,27.90
2019-02-04T17:27:49.158Z,26.27
2019-02-04T17:30:20.778Z,26.73
2019-02-04T17:32:49.812Z,26.80
2019-02-04T17:35:18.839Z,27.17
2019-02-04T17:37:48.019Z,26.43
2019-02-04T17:40:18.944Z,29.87
2019-02-04T17:42:48.270Z,26.90
2019-02-04T17:45:17.861Z,28.57
2019-02-04T17:47:47.771Z,27.90
2019-02-04T17:50:18.339Z,26.37
2019-02-04T17:52:47.391Z,28.53
2019-02-04T17:55:18.752Z,27.33
2019-02-04T17:57:47.853Z,29.47
2019-02-04T18:00:40.310Z,28.90
2019-02-04T18:03:09.485Z,30.73
2019-02-04T18:05:38.699Z,28.70
2019-02-04T18:08:08.340Z,27.50
2019-02-04T18:10:37.402Z,30.13
2019-02-04T18:13:06.413Z,28.50
2019-02-04T18:15:35.477Z,30.80
2019-02-04T18:18:05.001Z,31.27
2019-02-04T18:20:34.026Z,30.00
2019-02-04T18:23:03.118Z,28.90
2019-02-04T18:25:32.459Z,33.33
2019-02-04T18:28:01.478Z,29.30
2019-02-04T18:30:30.885Z,30.07
2019-02-04T18:32:59.956Z,28.83
2019-02-04T18:35:29.246Z,30.53
2019-02-04T18:37:58.258Z,30.00
2019-02-04T18:40:27.350Z,30.03
2019-02-04T18:42:56.849Z,30.53
2019-02-04T18:45:27.386Z,30.87
2019-02-04T18:47:56.648Z,32.07
2019-02-04T18:50:26.095Z,30.27
2019-02-04T18:52:55.144Z,30.13
2019-02-04T18:55:29.545Z,30.37
2019-02-04T18:57:58.578Z,31.57
2019-02-04T19:00:28.919Z,30.47
2019-02-04T19:02:58.783Z,32.47
2019-02-04T19:05:27.863Z,31.77
2019-02-04T19:07:58.326Z,32.70
2019-02-04T19:10:27.338Z,32.57
2019-02-04T19:12:56.394Z,34.70
2019-02-04T19:15:25.602Z,31.70
2019-02-04T19:17:57.226Z,32.43
2019-02-04T19:20:26.290Z,34.97
2019-02-04T19:22:55.296Z,33.70
2019-02-04T19:25:24.558Z,33.97
2019-02-04T19:27:53.970Z,32.97
2019-02-04T19:30:25.959Z,33.37
2019-02-04T19:32:55.393Z,34.27
2019-02-04T19:35:24.400Z,33.33
2019-02-04T19:37:53.474Z,32.97
2019-02-04T19:40:22.486Z,36.23
2019-02-04T19:42:51.540Z,33.63
2019-02-04T19:45:20.937Z,35.00
2019-02-04T19:47:50.340Z,35.63
2019-02-04T19:50:25.209Z,34.23
2019-02-04T19:52:54.173Z,32.30
2019-02-04T19:55:23.196Z,33.53
2019-02-04T19:57:52.931Z,34.30
2019-02-04T20:00:22.322Z,34.50
2019-02-04T20:02:51.647Z,34.00
2019-02-04T20:05:21.848Z,33.83
2019-02-04T20:07:51.169Z,33.97
2019-02-04T20:10:22.530Z,34.30
2019-02-04T20:12:51.805Z,33.73
2019-02-04T20:15:23.288Z,34.00
2019-02-04T20:17:52.313Z,33.00
2019-02-04T20:20:21.647Z,33.80
2019-02-04T20:22:50.708Z,34.20
2019-02-04T20:25:22.442Z,32.90
2019-02-04T20:27:51.502Z,35.10
2019-02-04T20:30:23.396Z,38.40
2019-02-04T20:32:52.446Z,34.17
2019-02-04T20:35:21.493Z,34.47
2019-02-04T20:37:50.582Z,32.93
2019-02-04T20:40:20.738Z,34.43
2019-02-04T20:42:50.031Z,33.60
2019-02-04T20:45:19.526Z,35.50
2019-02-04T20:47:49.129Z,34.70
2019-02-04T20:50:23.923Z,32.40
2019-02-04T20:52:52.980Z,33.60
2019-02-04T20:55:22.016Z,33.57
2019-02-04T20:57:51.082Z,32.97
2019-02-04T21:00:22.486Z,32.83
2019-02-04T21:02:52.023Z,36.17
2019-02-04T21:05:21.080Z,33.77
2019-02-04T21:07:50.087Z,33.20
2019-02-04T21:10:20.954Z,33.40
2019-02-04T21:12:50.075Z,34.77
2019-02-04T21:15:20.115Z,35.67
2019-02-04T21:17:49.192Z,31.90
2019-02-04T21:20:20.046Z,33.37
2019-02-04T21:22:49.356Z,33.03
2019-02-04T21:25:18.518Z,31.70
2019-02-04T21:27:47.735Z,32.23
2019-02-04T21:30:19.257Z,31.33
2019-02-04T21:32:48.274Z,30.30
2019-02-04T21:35:17.287Z,31.23
2019-02-04T21:37:46.358Z,29.50
2019-02-04T21:40:15.805Z,31.00
2019-02-04T21:42:45.092Z,31.10
2019-02-04T21:45:16.068Z,30.67
2019-02-04T21:47:45.082Z,31.27
2019-02-04T21:50:17.213Z,30.60
2019-02-04T21:52:46.375Z,30.07
2019-02-04T21:55:15.892Z,28.00
2019-02-04T21:57:45.236Z,30.80
2019-02-04T22:00:17.395Z,31.90
2019-02-04T22:02:46.532Z,30.60
2019-02-04T22:05:16.772Z,29.30
2019-02-04T22:07:45.841Z,30.87
2019-02-04T22:10:20.450Z,31.13
2019-02-04T22:12:49.462Z,30.87
2019-02-04T22:15:18.578Z,32.77
2019-02-04T22:17:47.648Z,30.17
2019-02-04T22:20:17.624Z,30.50
2019-02-04T22:22:46.673Z,31.00
2019-02-04T22:25:19.733Z,31.83
2019-02-04T22:27:47.818Z,30.10
2019-02-04T22:30:21.801Z,32.80
2019-02-04T22:32:50.829Z,31.27
2019-02-04T22:35:19.889Z,31.73
2019-02-04T22:37:48.991Z,31.50
2019-02-04T22:40:20.469Z,32.60
2019-02-04T22:42:49.526Z,31.77
2019-02-04T22:45:18.570Z,29.70
2019-02-04T22:47:47.592Z,32.30
2019-02-04T22:50:21.751Z,30.83
2019-02-04T22:52:51.214Z,31.03
2019-02-04T22:55:31.077Z,30.93
2019-02-04T22:57:51.436Z,32.47
2019-02-04T23:00:53.785Z,31.97
2019-02-04T23:03:23.665Z,30.33
2019-02-04T23:05:53.976Z,33.77
2019-02-04T23:08:22.913Z,33.20
2019-02-04T23:10:52.120Z,33.60
2019-02-04T23:13:21.101Z,30.97
2019-02-04T23:15:50.161Z,32.23
2019-02-04T23:18:19.214Z,33.17
2019-02-04T23:20:48.271Z,33.73
2019-02-04T23:23:17.313Z,33.63
2019-02-04T23:25:46.366Z,32.73
2019-02-04T23:28:15.550Z,32.83
2019-02-04T23:30:44.946Z,31.23
2019-02-04T23:33:14.230Z,32.70
2019-02-04T23:35:43.293Z,30.83
2019-02-04T23:38:12.301Z,28.37
2019-02-04T23:40:41.361Z,28.27
2019-02-04T23:43:10.378Z,27.17
2019-02-04T23:45:39.685Z,29.10
2019-02-04T23:48:09.109Z,27.90
2019-02-04T23:50:39.234Z,27.97
2019-02-04T23:53:08.353Z,28.80
2019-02-04T23:55:37.371Z,27.77
2019-02-04T23:58:06.388Z,27.77
